Time;durP1;ratioP1;P1;durP2;ratioP2;P2;SDS_P1;SDS_P2;PMS_P1;PMS_P2;Temp;Humidity;BMP_temperature;BMP_pressure;BME280_temperature;BME280_humidity;BME280_pressure;Samples;Min_cycle;Max_cycle;Signal;HPM_P1;HPM_P2
2022/02/07 06:59:21;;;;;;;9.75;2.10;;;;;;;;;;10644286;27;20031;-83
2022/02/07 07:04:28;;;;;;;5.97;1.40;;;;;;;;;;10623537;28;20026;-83
2022/02/07 07:09:32;;;;;;;4.18;1.30;;;;;;;;;;10623803;28;20112;-84
2022/02/07 07:14:56;;;;;;;7.03;1.98;;;;;;;;;;10631117;28;20027;-83
2022/02/07 07:20:02;;;;;;;5.18;1.50;;;;;;;;;;10636634;28;20024;-82
2022/02/07 08:04:33;;;;;;;6.50;2.15;;;;;;;;;;10436717;28;20056;-85
2022/02/07 08:09:46;;;;;;;5.18;2.50;;;;;;;;;;10415130;28;20037;-82
2022/02/07 08:14:48;;;;;;;6.88;2.63;;;;;;;;;;10409809;28;20372;-79
2022/02/07 08:19:50;;;;;;;9.85;2.58;;;;;;;;;;10429513;28;20030;-80
2022/02/07 08:24:55;;;;;;;6.78;2.55;;;;;;;;;;10430600;28;20029;-80
2022/02/07 08:29:57;;;;;;;6.53;2.47;;;;;;;;;;10417416;28;20101;-81
2022/02/07 08:35:01;;;;;;;5.70;2.45;;;;;;;;;;10415264;28;20029;-80
2022/02/07 08:40:02;;;;;;;6.53;2.28;;;;;;;;;;10418073;28;20029;-80
2022/02/07 08:45:02;;;;;;;;;;;;;;;;;;10417532;28;20480;-80
2022/02/07 08:50:06;;;;;;;8.90;2.47;;;;;;;;;;10418323;28;19905;-80
2022/02/07 08:55:08;;;;;;;6.32;2.47;;;;;;;;;;10416053;28;20041;-80
2022/02/07 09:05:24;;;;;;;10.35;4.45;;;;;;;;;;10432833;28;20176;-79
2022/02/07 09:10:25;;;;;;;6.07;3.20;;;;;;;;;;10408811;28;20042;-79
2022/02/07 09:20:30;;;;;;;8.20;2.35;;;;;;;;;;10432379;28;19911;-80
2022/02/07 09:25:31;;;;;;;;;;;;;;;;;;10412673;28;20159;-79
2022/02/07 09:30:32;;;;;;;8.30;2.97;;;;;;;;;;10412444;28;19974;-80
2022/02/07 09:35:35;;;;;;;;;;;;;;;;;;10412886;28;20117;-79
2022/02/07 09:40:36;;;;;;;7.05;2.67;;;;;;;;;;10411023;28;19905;-79
2022/02/07 09:45:40;;;;;;;;;;;;;;;;;;10428898;28;20045;-80
2022/02/07 09:50:41;;;;;;;8.15;2.47;;;;;;;;;;10413099;28;19921;-82
2022/02/07 09:55:42;;;;;;;6.80;2.65;;;;;;;;;;10415081;28;20057;-81
2022/02/07 10:00:43;;;;;;;5.60;2.20;;;;;;;;;;10416672;28;20044;-81
2022/02/07 10:42:43;;;;;;;8.88;3.05;;;;;;;;;;10441536;28;20034;-80
2022/02/07 10:47:47;;;;;;;17.92;10.40;;;;;;;;;;10420834;28;20057;-80
2022/02/07 10:53:00;;;;;;;7.20;2.47;;;;;;;;;;10417585;28;20038;-79
2022/02/07 10:58:02;;;;;;;7.18;3.22;;;;;;;;;;10415336;28;20037;-79
2022/02/07 11:03:17;;;;;;;8.88;3.13;;;;;;;;;;10414741;28;20069;-79
2022/02/07 11:15:04;;;;;;;7.53;2.30;;;;;;;;;;10354858;28;20038;-79
2022/02/07 11:19:53;;;;;;;7.65;2.58;;;;;;;;;;10422891;28;20045;-80
2022/02/07 11:25:22;;;;;;;6.80;2.40;;;;;;;;;;10413889;28;20033;-79
2022/02/07 11:30:35;;;;;;;7.68;2.10;;;;;;;;;;10412120;28;20048;-78
2022/02/07 11:35:50;;;;;;;8.07;2.30;;;;;;;;;;10415185;28;20505;-78
2022/02/07 11:41:05;;;;;;;8.50;2.47;;;;;;;;;;10417778;28;20395;-78
2022/02/07 11:46:12;;;;;;;7.35;2.47;;;;;;;;;;10414246;28;20491;-79
2022/02/07 11:51:15;;;;;;;7.43;2.58;;;;;;;;;;10413537;28;20140;-79
2022/02/07 11:56:25;;;;;;;7.47;2.40;;;;;;;;;;10415069;28;20096;-79
2022/02/07 12:02:00;;;;;;;10.85;2.85;;;;;;;;;;10434345;28;20040;-79
2022/02/07 12:12:33;;;;;;;10.07;2.45;;;;;;;;;;10435996;28;20095;-81
2022/02/07 12:17:41;;;;;;;8.32;2.72;;;;;;;;;;10415366;28;20052;-82
2022/02/07 12:23:05;;;;;;;7.97;2.40;;;;;;;;;;10416127;28;20038;-81
2022/02/07 12:28:10;;;;;;;9.30;2.83;;;;;;;;;;10431564;28;20056;-81
2022/02/07 12:33:12;;;;;;;9.48;2.85;;;;;;;;;;10420856;28;20033;-80
2022/02/07 12:38:13;;;;;;;7.38;2.45;;;;;;;;;;10441571;28;20029;-81
2022/02/07 12:43:14;;;;;;;;;;;;;;;;;;10421357;28;20487;-80
2022/02/07 12:48:20;;;;;;;5.85;2.53;;;;;;;;;;10430663;28;19919;-83
2022/02/07 12:53:22;;;;;;;7.15;2.78;;;;;;;;;;10427392;28;20101;-82
2022/02/07 12:58:28;;;;;;;6.45;2.13;;;;;;;;;;10421392;28;20029;-82
2022/02/07 13:03:29;;;;;;;6.95;2.05;;;;;;;;;;10420759;28;20107;-82
2022/02/07 13:08:30;;;;;;;;;;;;;;;;;;10417890;28;20068;-82
2022/02/07 13:13:47;;;;;;;;;;;;;;;;;;10416473;28;19909;-82
2022/02/07 13:18:48;;;;;;;7.43;2.75;;;;;;;;;;10423397;28;20319;-82
2022/02/07 13:23:49;;;;;;;7.90;3.08;;;;;;;;;;10420987;28;20115;-82
2022/02/07 13:28:50;;;;;;;;;;;;;;;;;;10458614;28;20029;-81
2022/02/07 13:33:52;;;;;;;10.85;2.45;;;;;;;;;;10437423;28;19965;-82
2022/02/07 13:39:00;;;;;;;6.10;2.67;;;;;;;;;;10450806;28;20443;-82
2022/02/07 13:44:01;;;;;;;8.23;2.35;;;;;;;;;;10443128;28;20036;-83
2022/02/07 13:49:03;;;;;;;6.38;2.53;;;;;;;;;;10422930;28;20029;-82
2022/02/07 13:54:04;;;;;;;28.65;18.02;;;;;;;;;;10429509;28;20093;-81
2022/02/07 13:59:05;;;;;;;;;;;;;;;;;;10439032;28;20045;-81
2022/02/07 14:04:15;;;;;;;6.32;2.55;;;;;;;;;;10422046;28;19992;-81
2022/02/07 14:09:16;;;;;;;10.23;3.03;;;;;;;;;;10418905;28;20084;-81
2022/02/07 14:14:17;;;;;;;7.18;2.60;;;;;;;;;;10421377;28;20065;-82
2022/02/07 14:19:18;;;;;;;;;;;;;;;;;;10438121;28;20040;-82
2022/02/07 14:24:20;;;;;;;8.50;2.35;;;;;;;;;;10437844;28;19973;-82
2022/02/07 14:29:22;;;;;;;6.47;2.45;;;;;;;;;;10428590;28;20044;-81
2022/02/07 14:34:23;;;;;;;6.75;2.15;;;;;;;;;;10423086;28;20037;-79
2022/02/07 14:39:24;;;;;;;7.80;2.10;;;;;;;;;;10402630;28;20424;-79
2022/02/07 14:44:31;;;;;;;6.47;2.20;;;;;;;;;;10419495;28;20037;-80
2022/02/07 14:49:32;;;;;;;6.00;1.85;;;;;;;;;;10404254;28;20038;-80
2022/02/07 14:54:34;;;;;;;7.78;2.78;;;;;;;;;;10402954;28;20096;-81
2022/02/07 14:59:35;;;;;;;5.40;1.90;;;;;;;;;;10424816;28;20094;-81
2022/02/07 15:04:36;;;;;;;6.97;2.53;;;;;;;;;;10404766;28;20033;-83
2022/02/07 15:09:37;;;;;;;6.10;2.20;;;;;;;;;;10413379;28;20029;-80
2022/02/07 15:14:38;;;;;;;7.63;1.90;;;;;;;;;;10412300;28;20088;-80
2022/02/07 15:19:41;;;;;;;5.88;1.75;;;;;;;;;;10413619;28;20125;-81
2022/02/07 15:24:42;;;;;;;4.57;1.77;;;;;;;;;;10413605;28;20083;-80
2022/02/07 15:29:44;;;;;;;;;;;;;;;;;;10430708;28;20065;-79
2022/02/07 15:34:45;;;;;;;5.07;1.80;;;;;;;;;;10413345;28;19909;-79
2022/02/07 15:39:46;;;;;;;;;;;;;;;;;;10413731;28;20475;-80
2022/02/07 15:44:47;;;;;;;5.38;2.08;;;;;;;;;;10413485;28;20299;-81
2022/02/07 15:49:48;;;;;;;5.88;2.00;;;;;;;;;;10429729;28;20040;-79
2022/02/07 15:54:53;;;;;;;;;;;;;;;;;;10414834;28;20044;-80
2022/02/07 15:59:54;;;;;;;4.50;1.80;;;;;;;;;;10431073;28;19909;-80
2022/02/07 16:04:55;;;;;;;7.90;1.77;;;;;;;;;;10413030;28;20128;-82
2022/02/07 16:09:56;;;;;;;;;;;;;;;;;;10415430;28;20116;-79
2022/02/07 16:14:57;;;;;;;5.45;1.75;;;;;;;;;;10413521;28;20003;-81
2022/02/07 16:19:59;;;;;;;5.55;1.50;;;;;;;;;;10414596;28;20034;-79
2022/02/07 16:25:01;;;;;;;6.18;2.15;;;;;;;;;;10424299;28;20041;-80
2022/02/07 16:30:02;;;;;;;5.95;1.65;;;;;;;;;;10437816;28;20044;-79
2022/02/07 16:35:02;;;;;;;;;;;;;;;;;;10418068;28;20065;-79
2022/02/07 16:40:04;;;;;;;3.65;1.33;;;;;;;;;;10417974;28;19967;-80
2022/02/07 16:45:09;;;;;;;7.30;2.75;;;;;;;;;;10429125;28;20033;-80
2022/02/07 16:50:10;;;;;;;3.25;1.58;;;;;;;;;;10428228;28;20068;-79
2022/02/07 16:55:11;;;;;;;;;;;;;;;;;;10426623;28;20573;-79
2022/02/07 17:00:13;;;;;;;5.35;1.92;;;;;;;;;;10425557;28;20358;-79
2022/02/07 17:05:16;;;;;;;4.28;1.40;;;;;;;;;;10425988;28;20080;-79
2022/02/07 17:10:18;;;;;;;4.93;1.90;;;;;;;;;;10425152;28;20059;-79
2022/02/07 17:15:40;;;;;;;5.30;2.33;;;;;;;;;;10438235;28;20025;-82
2022/02/07 17:20:41;;;;;;;6.47;2.83;;;;;;;;;;10455573;28;20026;-83
2022/02/07 17:31:11;;;;;;;5.47;1.77;;;;;;;;;;10370073;28;19934;-83
2022/02/07 17:47:04;;;;;;;4.70;1.77;;;;;;;;;;10896887;22;20057;-81
2022/02/07 19:25:58;;;;;;;3.03;1.30;;;;;;;;;;10485815;23;20041;-84
2022/02/07 19:31:22;;;;;;;3.47;1.20;;;;;;;;;;10455229;28;20036;-86
2022/02/07 19:36:25;;;;;;;3.00;1.23;;;;;;;;;;10473338;28;20052;-84
2022/02/07 19:41:32;;;;;;;3.50;1.30;;;;;;;;;;10455383;28;20044;-83
2022/02/07 19:46:33;;;;;;;2.33;1.17;;;;;;;;;;10457989;28;20033;-85
2022/02/07 19:51:34;;;;;;;;;;;;;;;;;;10459735;28;20434;-85
2022/02/07 19:56:35;;;;;;;2.63;1.20;;;;;;;;;;10463527;28;20320;-83
2022/02/07 20:01:36;;;;;;;;;;;;;;;;;;10462617;28;20049;-83
2022/02/07 20:06:37;;;;;;;3.40;1.63;;;;;;;;;;10462963;28;19995;-83
2022/02/07 20:11:44;;;;;;;3.45;1.48;;;;;;;;;;10461428;28;20036;-84
2022/02/07 20:16:45;;;;;;;4.97;1.58;;;;;;;;;;10461556;28;20029;-84
2022/02/07 20:21:46;;;;;;;;;;;;;;;;;;10462149;28;20475;-84
2022/02/07 20:26:55;;;;;;;4.35;1.48;;;;;;;;;;10461083;28;20328;-85
2022/02/07 20:31:57;;;;;;;3.25;1.40;;;;;;;;;;10459896;28;20025;-84
2022/02/07 20:36:58;;;;;;;3.90;1.60;;;;;;;;;;10461035;28;20032;-84
2022/02/07 20:41:59;;;;;;;;;;;;;;;;;;10454938;28;20475;-84
2022/02/07 20:47:00;;;;;;;4.63;1.90;;;;;;;;;;10454711;28;19908;-84
2022/02/07 20:52:01;;;;;;;3.33;1.88;;;;;;;;;;10483568;28;20112;-83
2022/02/07 20:57:02;;;;;;;5.40;1.80;;;;;;;;;;10469984;28;20037;-84
2022/02/07 21:02:06;;;;;;;3.00;1.50;;;;;;;;;;10457352;28;20037;-84
2022/02/07 21:07:12;;;;;;;4.40;1.85;;;;;;;;;;10457747;28;20036;-84
2022/02/07 21:12:15;;;;;;;4.40;1.50;;;;;;;;;;10458632;28;20029;-85
